sensor_id;sensor_type;location;lat;lon;timestamp;temperature;humidity
11214;DHT22;5664;48.606;13.456;2023-12-20T00:02:12;17.30;95.60
11214;DHT22;5664;48.606;13.456;2023-12-20T00:04:38;17.20;95.70
11214;DHT22;5664;48.606;13.456;2023-12-20T00:07:03;17.20;95.60
11214;DHT22;5664;48.606;13.456;2023-12-20T00:09:29;17.10;95.20
11214;DHT22;5664;48.606;13.456;2023-12-20T00:11:54;17.20;95.60
11214;DHT22;5664;48.606;13.456;2023-12-20T00:14:20;17.40;95.70
11214;DHT22;5664;48.606;13.456;2023-12-20T00:16:45;17.10;95.70
11214;DHT22;5664;48.606;13.456;2023-12-20T00:19:11;17.10;95.70
11214;DHT22;5664;48.606;13.456;2023-12-20T00:21:36;17.10;95.80
11214;DHT22;5664;48.606;13.456;2023-12-20T00:24:02;17.10;95.70
11214;DHT22;5664;48.606;13.456;2023-12-20T00:26:27;17.00;97.10
11214;DHT22;5664;48.606;13.456;2023-12-20T00:28:53;17.00;95.70
11214;DHT22;5664;48.606;13.456;2023-12-20T00:31:18;17.30;95.90
11214;DHT22;5664;48.606;13.456;2023-12-20T00:33:44;17.00;95.80
11214;DHT22;5664;48.606;13.456;2023-12-20T00:36:11;16.90;95.80
11214;DHT22;5664;48.606;13.456;2023-12-20T00:38:36;16.90;95.80
11214;DHT22;5664;48.606;13.456;2023-12-20T00:41:02;16.90;95.90
11214;DHT22;5664;48.606;13.456;2023-12-20T00:43:27;16.90;95.90
11214;DHT22;5664;48.606;13.456;2023-12-20T00:45:53;16.90;95.90
11214;DHT22;5664;48.606;13.456;2023-12-20T00:48:18;16.90;95.90
11214;DHT22;5664;48.606;13.456;2023-12-20T00:50:44;16.80;96.00
11214;DHT22;5664;48.606;13.456;2023-12-20T00:53:09;16.80;95.90
11214;DHT22;5664;48.606;13.456;2023-12-20T00:55:35;16.70;96.00
11214;DHT22;5664;48.606;13.456;2023-12-20T00:58:00;16.70;96.00
11214;DHT22;5664;48.606;13.456;2023-12-20T01:00:26;16.70;95.90
11214;DHT22;5664;48.606;13.456;2023-12-20T01:02:51;16.70;96.00
11214;DHT22;5664;48.606;13.456;2023-12-20T01:05:20;16.60;96.00
11214;DHT22;5664;48.606;13.456;2023-12-20T01:07:48;16.70;95.80
11214;DHT22;5664;48.606;13.456;2023-12-20T01:10:14;16.70;95.90
11214;DHT22;5664;48.606;13.456;2023-12-20T01:12:39;16.60;96.00
11214;DHT22;5664;48.606;13.456;2023-12-20T01:15:05;16.60;96.10
11214;DHT22;5664;48.606;13.456;2023-12-20T01:17:30;16.60;96.10
11214;DHT22;5664;48.606;13.456;2023-12-20T01:19:56;16.70;96.10
11214;DHT22;5664;48.606;13.456;2023-12-20T01:22:21;16.50;95.90
11214;DHT22;5664;48.606;13.456;2023-12-20T01:24:47;16.60;96.20
11214;DHT22;5664;48.606;13.456;2023-12-20T01:27:12;16.50;96.10
11214;DHT22;5664;48.606;13.456;2023-12-20T01:29:38;16.50;96.20
11214;DHT22;5664;48.606;13.456;2023-12-20T01:32:04;16.60;96.20
11214;DHT22;5664;48.606;13.456;2023-12-20T01:34:29;16.60;96.30
11214;DHT22;5664;48.606;13.456;2023-12-20T01:36:55;16.40;96.20
11214;DHT22;5664;48.606;13.456;2023-12-20T01:39:20;16.40;96.20
11214;DHT22;5664;48.606;13.456;2023-12-20T01:41:45;16.40;96.20
11214;DHT22;5664;48.606;13.456;2023-12-20T01:44:11;16.40;96.30
11214;DHT22;5664;48.606;13.456;2023-12-20T01:46:36;16.40;96.30
11214;DHT22;5664;48.606;13.456;2023-12-20T01:49:02;16.30;96.30
11214;DHT22;5664;48.606;13.456;2023-12-20T01:51:31;16.30;96.20
11214;DHT22;5664;48.606;13.456;2023-12-20T01:53:57;16.30;96.30
11214;DHT22;5664;48.606;13.456;2023-12-20T01:56:23;16.40;96.50
11214;DHT22;5664;48.606;13.456;2023-12-20T01:58:48;16.30;96.30
11214;DHT22;5664;48.606;13.456;2023-12-20T02:01:14;16.30;96.20
11214;DHT22;5664;48.606;13.456;2023-12-20T02:03:41;16.30;96.30
11214;DHT22;5664;48.606;13.456;2023-12-20T02:06:07;16.30;96.30
11214;DHT22;5664;48.606;13.456;2023-12-20T02:08:32;16.30;96.40
11214;DHT22;5664;48.606;13.456;2023-12-20T02:10:59;16.20;96.40
11214;DHT22;5664;48.606;13.456;2023-12-20T02:13:25;16.20;96.40
11214;DHT22;5664;48.606;13.456;2023-12-20T02:15:52;16.20;96.50
11214;DHT22;5664;48.606;13.456;2023-12-20T02:18:17;16.20;96.40
11214;DHT22;5664;48.606;13.456;2023-12-20T02:20:43;16.20;96.20
11214;DHT22;5664;48.606;13.456;2023-12-20T02:23:08;16.10;96.30
11214;DHT22;5664;48.606;13.456;2023-12-20T02:25:34;16.10;96.30
11214;DHT22;5664;48.606;13.456;2023-12-20T02:27:59;16.10;96.20
11214;DHT22;5664;48.606;13.456;2023-12-20T02:30:25;16.10;96.20
11214;DHT22;5664;48.606;13.456;2023-12-20T02:32:50;16.10;96.60
11214;DHT22;5664;48.606;13.456;2023-12-20T02:35:16;16.10;96.60
11214;DHT22;5664;48.606;13.456;2023-12-20T02:37:42;16.00;96.60
11214;DHT22;5664;48.606;13.456;2023-12-20T02:40:07;16.00;96.70
11214;DHT22;5664;48.606;13.456;2023-12-20T02:42:36;16.00;96.80
11214;DHT22;5664;48.606;13.456;2023-12-20T02:45:01;16.00;96.60
11214;DHT22;5664;48.606;13.456;2023-12-20T02:47:30;16.10;97.90
11214;DHT22;5664;48.606;13.456;2023-12-20T02:49:55;16.00;96.80
11214;DHT22;5664;48.606;13.456;2023-12-20T02:52:21;16.00;96.90
11214;DHT22;5664;48.606;13.456;2023-12-20T02:54:47;16.00;96.80
11214;DHT22;5664;48.606;13.456;2023-12-20T02:57:12;16.00;96.90
11214;DHT22;5664;48.606;13.456;2023-12-20T02:59:38;15.90;97.00
11214;DHT22;5664;48.606;13.456;2023-12-20T03:02:03;15.90;97.00
11214;DHT22;5664;48.606;13.456;2023-12-20T03:04:29;15.90;97.00
11214;DHT22;5664;48.606;13.456;2023-12-20T03:06:55;15.80;97.10
11214;DHT22;5664;48.606;13.456;2023-12-20T03:09:20;15.90;97.60
11214;DHT22;5664;48.606;13.456;2023-12-20T03:11:46;15.80;97.50
11214;DHT22;5664;48.606;13.456;2023-12-20T03:14:11;15.80;97.50
11214;DHT22;5664;48.606;13.456;2023-12-20T03:16:37;16.00;97.60
11214;DHT22;5664;48.606;13.456;2023-12-20T03:19:02;15.90;97.60
11214;DHT22;5664;48.606;13.456;2023-12-20T03:21:27;15.80;97.60
11214;DHT22;5664;48.606;13.456;2023-12-20T03:23:53;15.90;97.70
11214;DHT22;5664;48.606;13.456;2023-12-20T03:26:18;15.80;97.60
11214;DHT22;5664;48.606;13.456;2023-12-20T03:28:44;15.70;97.60
11214;DHT22;5664;48.606;13.456;2023-12-20T03:31:09;15.80;97.60
11214;DHT22;5664;48.606;13.456;2023-12-20T03:33:35;15.80;97.80
11214;DHT22;5664;48.606;13.456;2023-12-20T03:36:00;16.10;97.70
11214;DHT22;5664;48.606;13.456;2023-12-20T03:38:26;15.80;96.90
11214;DHT22;5664;48.606;13.456;2023-12-20T03:40:51;15.70;97.00
11214;DHT22;5664;48.606;13.456;2023-12-20T03:43:17;15.70;97.00
11214;DHT22;5664;48.606;13.456;2023-12-20T03:45:42;15.70;97.10
11214;DHT22;5664;48.606;13.456;2023-12-20T03:48:08;15.70;97.20
11214;DHT22;5664;48.606;13.456;2023-12-20T03:50:34;15.70;97.60
11214;DHT22;5664;48.606;13.456;2023-12-20T03:52:59;15.60;97.20
11214;DHT22;5664;48.606;13.456;2023-12-20T03:55:25;15.60;97.30
11214;DHT22;5664;48.606;13.456;2023-12-20T03:57:51;15.60;97.30
11214;DHT22;5664;48.606;13.456;2023-12-20T04:00:16;15.60;97.40
11214;DHT22;5664;48.606;13.456;2023-12-20T04:02:42;15.60;97.40
11214;DHT22;5664;48.606;13.456;2023-12-20T04:05:08;15.60;97.50
11214;DHT22;5664;48.606;13.456;2023-12-20T04:07:33;15.50;97.50
11214;DHT22;5664;48.606;13.456;2023-12-20T04:09:59;15.50;97.60
11214;DHT22;5664;48.606;13.456;2023-12-20T04:12:25;15.40;97.60
11214;DHT22;5664;48.606;13.456;2023-12-20T04:14:51;15.50;97.60
11214;DHT22;5664;48.606;13.456;2023-12-20T04:17:17;15.50;97.90
11214;DHT22;5664;48.606;13.456;2023-12-20T04:19:42;15.50;97.90
11214;DHT22;5664;48.606;13.456;2023-12-20T04:22:08;15.50;98.00
11214;DHT22;5664;48.606;13.456;2023-12-20T04:24:34;15.50;98.20
11214;DHT22;5664;48.606;13.456;2023-12-20T04:26:59;15.50;98.40
11214;DHT22;5664;48.606;13.456;2023-12-20T04:29:25;15.40;98.60
11214;DHT22;5664;48.606;13.456;2023-12-20T04:31:50;15.40;99.20
11214;DHT22;5664;48.606;13.456;2023-12-20T04:34:17;15.50;99.40
11214;DHT22;5664;48.606;13.456;2023-12-20T04:36:42;15.40;99.40
11214;DHT22;5664;48.606;13.456;2023-12-20T04:39:08;15.50;99.50
11214;DHT22;5664;48.606;13.456;2023-12-20T04:41:33;15.30;98.00
11214;DHT22;5664;48.606;13.456;2023-12-20T04:43:59;15.50;98.40
11214;DHT22;5664;48.606;13.456;2023-12-20T04:46:26;15.40;97.90
11214;DHT22;5664;48.606;13.456;2023-12-20T04:48:51;15.30;98.00
11214;DHT22;5664;48.606;13.456;2023-12-20T04:51:17;15.30;98.10
11214;DHT22;5664;48.606;13.456;2023-12-20T04:53:42;15.30;98.00
11214;DHT22;5664;48.606;13.456;2023-12-20T04:56:07;15.30;98.10
11214;DHT22;5664;48.606;13.456;2023-12-20T04:58:33;15.10;98.20
11214;DHT22;5664;48.606;13.456;2023-12-20T05:00:58;15.40;98.30
11214;DHT22;5664;48.606;13.456;2023-12-20T05:03:24;15.30;98.40
11214;DHT22;5664;48.606;13.456;2023-12-20T05:05:49;15.40;98.80
11214;DHT22;5664;48.606;13.456;2023-12-20T05:08:15;15.30;99.20
11214;DHT22;5664;48.606;13.456;2023-12-20T05:10:40;15.20;99.40
11214;DHT22;5664;48.606;13.456;2023-12-20T05:13:06;15.10;98.20
11214;DHT22;5664;48.606;13.456;2023-12-20T05:15:32;15.30;98.30
11214;DHT22;5664;48.606;13.456;2023-12-20T05:17:57;15.20;98.40
11214;DHT22;5664;48.606;13.456;2023-12-20T05:20:23;15.20;98.10
11214;DHT22;5664;48.606;13.456;2023-12-20T05:22:48;15.10;98.00
11214;DHT22;5664;48.606;13.456;2023-12-20T05:25:14;15.20;99.20
11214;DHT22;5664;48.606;13.456;2023-12-20T05:27:39;15.20;99.80
11214;DHT22;5664;48.606;13.456;2023-12-20T05:30:05;15.10;99.80
11214;DHT22;5664;48.606;13.456;2023-12-20T05:32:31;15.10;99.90
11214;DHT22;5664;48.606;13.456;2023-12-20T05:34:56;15.00;99.80
11214;DHT22;5664;48.606;13.456;2023-12-20T05:37:22;15.10;99.90
11214;DHT22;5664;48.606;13.456;2023-12-20T05:39:47;15.60;99.90
11214;DHT22;5664;48.606;13.456;2023-12-20T05:42:13;15.10;99.90
11214;DHT22;5664;48.606;13.456;2023-12-20T05:44:38;15.20;99.90
11214;DHT22;5664;48.606;13.456;2023-12-20T05:47:04;15.00;99.90
11214;DHT22;5664;48.606;13.456;2023-12-20T05:49:29;15.00;99.90
11214;DHT22;5664;48.606;13.456;2023-12-20T05:51:55;15.10;99.90
11214;DHT22;5664;48.606;13.456;2023-12-20T05:54:20;15.10;99.90
11214;DHT22;5664;48.606;13.456;2023-12-20T05:56:46;15.00;99.90
11214;DHT22;5664;48.606;13.456;2023-12-20T05:59:12;15.00;99.90
11214;DHT22;5664;48.606;13.456;2023-12-20T06:01:37;15.00;99.90
11214;DHT22;5664;48.606;13.456;2023-12-20T06:04:03;15.00;99.90
11214;DHT22;5664;48.606;13.456;2023-12-20T06:06:29;15.10;99.90
11214;DHT22;5664;48.606;13.456;2023-12-20T06:08:55;15.00;99.90
11214;DHT22;5664;48.606;13.456;2023-12-20T06:11:21;15.10;99.90
11214;DHT22;5664;48.606;13.456;2023-12-20T06:13:46;15.00;99.30
11214;DHT22;5664;48.606;13.456;2023-12-20T06:16:12;15.00;99.50
11214;DHT22;5664;48.606;13.456;2023-12-20T06:18:38;14.90;99.30
11214;DHT22;5664;48.606;13.456;2023-12-20T06:21:03;14.80;99.40
11214;DHT22;5664;48.606;13.456;2023-12-20T06:23:29;14.90;99.30
11214;DHT22;5664;48.606;13.456;2023-12-20T06:25:55;15.00;98.60
11214;DHT22;5664;48.606;13.456;2023-12-20T06:28:20;14.90;98.70
11214;DHT22;5664;48.606;13.456;2023-12-20T06:30:48;14.90;98.50
11214;DHT22;5664;48.606;13.456;2023-12-20T06:33:15;14.90;98.60
11214;DHT22;5664;48.606;13.456;2023-12-20T06:35:40;14.80;98.40
11214;DHT22;5664;48.606;13.456;2023-12-20T06:38:06;14.80;98.40
11214;DHT22;5664;48.606;13.456;2023-12-20T06:40:31;14.80;97.60
11214;DHT22;5664;48.606;13.456;2023-12-20T06:42:57;14.80;97.50
11214;DHT22;5664;48.606;13.456;2023-12-20T06:45:22;14.80;97.40
11214;DHT22;5664;48.606;13.456;2023-12-20T06:47:48;14.80;97.30
11214;DHT22;5664;48.606;13.456;2023-12-20T06:50:13;14.80;97.30
11214;DHT22;5664;48.606;13.456;2023-12-20T06:52:39;14.90;97.30
11214;DHT22;5664;48.606;13.456;2023-12-20T06:55:05;14.80;97.30
11214;DHT22;5664;48.606;13.456;2023-12-20T06:57:30;14.70;96.60
11214;DHT22;5664;48.606;13.456;2023-12-20T06:59:56;14.50;97.30
11214;DHT22;5664;48.606;13.456;2023-12-20T07:02:23;14.70;96.60
11214;DHT22;5664;48.606;13.456;2023-12-20T07:04:48;14.80;97.10
11214;DHT22;5664;48.606;13.456;2023-12-20T07:07:14;14.70;97.10
11214;DHT22;5664;48.606;13.456;2023-12-20T07:09:42;14.70;97.00
11214;DHT22;5664;48.606;13.456;2023-12-20T07:12:08;14.70;97.10
11214;DHT22;5664;48.606;13.456;2023-12-20T07:14:34;14.70;97.00
11214;DHT22;5664;48.606;13.456;2023-12-20T07:17:00;14.60;94.70
11214;DHT22;5664;48.606;13.456;2023-12-20T07:19:25;14.60;95.20
11214;DHT22;5664;48.606;13.456;2023-12-20T07:21:51;14.60;95.20
11214;DHT22;5664;48.606;13.456;2023-12-20T07:24:19;14.60;94.70
11214;DHT22;5664;48.606;13.456;2023-12-20T07:26:44;14.60;95.10
11214;DHT22;5664;48.606;13.456;2023-12-20T07:29:10;14.70;95.20
11214;DHT22;5664;48.606;13.456;2023-12-20T07:31:35;14.70;95.30
11214;DHT22;5664;48.606;13.456;2023-12-20T07:34:01;14.60;95.20
11214;DHT22;5664;48.606;13.456;2023-12-20T07:36:26;14.60;95.20
11214;DHT22;5664;48.606;13.456;2023-12-20T07:38:52;14.60;95.20
11214;DHT22;5664;48.606;13.456;2023-12-20T07:41:17;14.60;95.20
11214;DHT22;5664;48.606;13.456;2023-12-20T07:43:46;14.60;95.40
11214;DHT22;5664;48.606;13.456;2023-12-20T07:46:11;14.60;95.30
11214;DHT22;5664;48.606;13.456;2023-12-20T07:48:37;14.60;95.40
11214;DHT22;5664;48.606;13.456;2023-12-20T07:51:03;14.60;95.30
11214;DHT22;5664;48.606;13.456;2023-12-20T07:53:29;14.50;95.40
11214;DHT22;5664;48.606;13.456;2023-12-20T07:55:55;14.60;96.00
11214;DHT22;5664;48.606;13.456;2023-12-20T07:58:20;14.60;96.30
11214;DHT22;5664;48.606;13.456;2023-12-20T08:00:46;14.70;96.30
11214;DHT22;5664;48.606;13.456;2023-12-20T08:03:11;14.70;96.20
11214;DHT22;5664;48.606;13.456;2023-12-20T08:05:37;14.70;96.00
11214;DHT22;5664;48.606;13.456;2023-12-20T08:08:05;14.70;96.00
11214;DHT22;5664;48.606;13.456;2023-12-20T08:10:31;15.80;96.20
11214;DHT22;5664;48.606;13.456;2023-12-20T08:12:56;14.70;95.80
11214;DHT22;5664;48.606;13.456;2023-12-20T08:15:22;14.70;95.80
11214;DHT22;5664;48.606;13.456;2023-12-20T08:17:47;14.60;95.70
11214;DHT22;5664;48.606;13.456;2023-12-20T08:20:13;14.70;95.80
11214;DHT22;5664;48.606;13.456;2023-12-20T08:22:38;14.60;95.80
11214;DHT22;5664;48.606;13.456;2023-12-20T08:25:04;14.60;95.70
11214;DHT22;5664;48.606;13.456;2023-12-20T08:27:29;14.60;95.70
11214;DHT22;5664;48.606;13.456;2023-12-20T08:29:57;14.60;95.70
11214;DHT22;5664;48.606;13.456;2023-12-20T08:32:25;14.60;95.90
11214;DHT22;5664;48.606;13.456;2023-12-20T08:34:50;14.70;95.80
11214;DHT22;5664;48.606;13.456;2023-12-20T08:37:16;14.50;95.40
11214;DHT22;5664;48.606;13.456;2023-12-20T08:39:41;14.70;95.90
11214;DHT22;5664;48.606;13.456;2023-12-20T08:42:08;14.60;95.80
11214;DHT22;5664;48.606;13.456;2023-12-20T08:44:34;14.60;95.20
11214;DHT22;5664;48.606;13.456;2023-12-20T08:46:59;14.50;95.50
11214;DHT22;5664;48.606;13.456;2023-12-20T08:49:25;14.60;95.60
11214;DHT22;5664;48.606;13.456;2023-12-20T08:51:50;14.50;95.70
11214;DHT22;5664;48.606;13.456;2023-12-20T08:54:16;14.50;95.60
11214;DHT22;5664;48.606;13.456;2023-12-20T08:56:42;14.50;95.60
11214;DHT22;5664;48.606;13.456;2023-12-20T08:59:08;14.50;95.60
11214;DHT22;5664;48.606;13.456;2023-12-20T09:01:34;14.60;95.60
11214;DHT22;5664;48.606;13.456;2023-12-20T09:04:00;14.60;95.70
11214;DHT22;5664;48.606;13.456;2023-12-20T09:06:25;14.50;95.70
11214;DHT22;5664;48.606;13.456;2023-12-20T09:08:51;14.50;95.80
11214;DHT22;5664;48.606;13.456;2023-12-20T09:11:16;14.60;96.00
11214;DHT22;5664;48.606;13.456;2023-12-20T09:13:45;14.50;95.80
11214;DHT22;5664;48.606;13.456;2023-12-20T09:16:10;14.50;95.80
11214;DHT22;5664;48.606;13.456;2023-12-20T09:18:36;14.50;95.90
11214;DHT22;5664;48.606;13.456;2023-12-20T09:21:01;14.50;95.80
11214;DHT22;5664;48.606;13.456;2023-12-20T09:23:27;14.50;97.00
11214;DHT22;5664;48.606;13.456;2023-12-20T09:25:53;14.50;95.90
11214;DHT22;5664;48.606;13.456;2023-12-20T09:28:19;14.60;96.00
11214;DHT22;5664;48.606;13.456;2023-12-20T09:30:44;14.60;96.00
11214;DHT22;5664;48.606;13.456;2023-12-20T09:33:11;14.50;95.90
11214;DHT22;5664;48.606;13.456;2023-12-20T09:35:37;14.50;95.80
11214;DHT22;5664;48.606;13.456;2023-12-20T09:38:02;14.60;95.90
11214;DHT22;5664;48.606;13.456;2023-12-20T09:40:28;14.30;95.90
11214;DHT22;5664;48.606;13.456;2023-12-20T09:42:57;14.50;95.80
11214;DHT22;5664;48.606;13.456;2023-12-20T09:45:23;14.50;95.70
11214;DHT22;5664;48.606;13.456;2023-12-20T09:47:50;14.50;95.80
11214;DHT22;5664;48.606;13.456;2023-12-20T09:50:15;14.50;95.90
11214;DHT22;5664;48.606;13.456;2023-12-20T09:52:42;14.50;95.90
11214;DHT22;5664;48.606;13.456;2023-12-20T09:55:08;14.50;95.90
11214;DHT22;5664;48.606;13.456;2023-12-20T09:57:35;14.50;95.90
11214;DHT22;5664;48.606;13.456;2023-12-20T10:00:00;14.50;95.90
11214;DHT22;5664;48.606;13.456;2023-12-20T10:02:26;14.40;95.90
11214;DHT22;5664;48.606;13.456;2023-12-20T10:04:52;14.40;95.80
11214;DHT22;5664;48.606;13.456;2023-12-20T10:07:18;14.50;96.00
11214;DHT22;5664;48.606;13.456;2023-12-20T10:09:43;14.40;96.20
11214;DHT22;5664;48.606;13.456;2023-12-20T10:12:09;14.50;95.90
11214;DHT22;5664;48.606;13.456;2023-12-20T10:14:34;14.50;95.90
11214;DHT22;5664;48.606;13.456;2023-12-20T10:17:03;14.50;95.80
11214;DHT22;5664;48.606;13.456;2023-12-20T10:19:29;14.40;95.70
11214;DHT22;5664;48.606;13.456;2023-12-20T10:21:54;14.40;95.90
11214;DHT22;5664;48.606;13.456;2023-12-20T10:24:20;14.50;96.20
11214;DHT22;5664;48.606;13.456;2023-12-20T10:26:46;14.50;95.90
11214;DHT22;5664;48.606;13.456;2023-12-20T10:29:11;14.50;95.90
11214;DHT22;5664;48.606;13.456;2023-12-20T10:31:37;14.50;95.90
11214;DHT22;5664;48.606;13.456;2023-12-20T10:34:04;14.40;95.80
11214;DHT22;5664;48.606;13.456;2023-12-20T10:36:32;14.40;95.90
11214;DHT22;5664;48.606;13.456;2023-12-20T10:38:58;14.40;95.70
11214;DHT22;5664;48.606;13.456;2023-12-20T10:41:27;14.40;95.70
11214;DHT22;5664;48.606;13.456;2023-12-20T10:43:54;14.40;95.60
11214;DHT22;5664;48.606;13.456;2023-12-20T10:46:20;14.50;95.80
11214;DHT22;5664;48.606;13.456;2023-12-20T10:48:45;14.40;95.80
11214;DHT22;5664;48.606;13.456;2023-12-20T10:51:12;14.40;95.80
11214;DHT22;5664;48.606;13.456;2023-12-20T10:53:38;14.40;95.70
11214;DHT22;5664;48.606;13.456;2023-12-20T10:56:05;14.40;95.80
11214;DHT22;5664;48.606;13.456;2023-12-20T10:58:32;14.40;95.80
11214;DHT22;5664;48.606;13.456;2023-12-20T11:01:00;14.40;95.70
11214;DHT22;5664;48.606;13.456;2023-12-20T11:03:27;14.40;95.80
11214;DHT22;5664;48.606;13.456;2023-12-20T11:06:02;14.40;95.70
11214;DHT22;5664;48.606;13.456;2023-12-20T11:08:39;14.40;95.70
11214;DHT22;5664;48.606;13.456;2023-12-20T11:11:20;14.40;95.70
11214;DHT22;5664;48.606;13.456;2023-12-20T11:13:53;14.40;95.70
11214;DHT22;5664;48.606;13.456;2023-12-20T11:16:20;14.40;95.80
11214;DHT22;5664;48.606;13.456;2023-12-20T11:18:46;14.40;96.00
11214;DHT22;5664;48.606;13.456;2023-12-20T11:21:11;14.40;95.90
11214;DHT22;5664;48.606;13.456;2023-12-20T11:23:39;14.40;96.00
11214;DHT22;5664;48.606;13.456;2023-12-20T11:26:07;14.40;95.80
11214;DHT22;5664;48.606;13.456;2023-12-20T11:28:32;14.40;95.90
11214;DHT22;5664;48.606;13.456;2023-12-20T11:30:58;14.40;93.90
11214;DHT22;5664;48.606;13.456;2023-12-20T11:33:26;14.30;94.00
11214;DHT22;5664;48.606;13.456;2023-12-20T11:35:52;14.40;95.60
11214;DHT22;5664;48.606;13.456;2023-12-20T11:38:20;14.40;96.40
11214;DHT22;5664;48.606;13.456;2023-12-20T11:40:47;14.50;96.80
11214;DHT22;5664;48.606;13.456;2023-12-20T11:43:13;14.50;96.80
11214;DHT22;5664;48.606;13.456;2023-12-20T11:45:54;14.40;96.80
11214;DHT22;5664;48.606;13.456;2023-12-20T11:48:19;14.50;96.90
11214;DHT22;5664;48.606;13.456;2023-12-20T11:50:45;14.40;97.00
11214;DHT22;5664;48.606;13.456;2023-12-20T11:53:11;14.30;96.30
11214;DHT22;5664;48.606;13.456;2023-12-20T11:55:37;14.50;96.80
11214;DHT22;5664;48.606;13.456;2023-12-20T11:58:02;14.50;96.70
11214;DHT22;5664;48.606;13.456;2023-12-20T12:00:28;14.40;96.60
11214;DHT22;5664;48.606;13.456;2023-12-20T12:02:54;14.30;96.30
11214;DHT22;5664;48.606;13.456;2023-12-20T12:05:20;14.60;96.60
11214;DHT22;5664;48.606;13.456;2023-12-20T12:07:45;14.50;96.60
11214;DHT22;5664;48.606;13.456;2023-12-20T12:10:11;14.50;96.60
11214;DHT22;5664;48.606;13.456;2023-12-20T12:12:36;14.50;96.60
11214;DHT22;5664;48.606;13.456;2023-12-20T12:15:02;14.40;96.60
11214;DHT22;5664;48.606;13.456;2023-12-20T12:17:28;14.40;96.50
11214;DHT22;5664;48.606;13.456;2023-12-20T12:20:01;14.50;96.60
11214;DHT22;5664;48.606;13.456;2023-12-20T12:22:27;14.50;96.40
11214;DHT22;5664;48.606;13.456;2023-12-20T12:24:53;14.50;96.50
11214;DHT22;5664;48.606;13.456;2023-12-20T12:27:18;14.50;96.50
11214;DHT22;5664;48.606;13.456;2023-12-20T12:30:00;14.50;96.20
11214;DHT22;5664;48.606;13.456;2023-12-20T12:32:26;14.50;95.80
11214;DHT22;5664;48.606;13.456;2023-12-20T12:34:51;14.70;96.80
11214;DHT22;5664;48.606;13.456;2023-12-20T12:37:17;14.80;97.70
11214;DHT22;5664;48.606;13.456;2023-12-20T12:39:43;14.80;98.20
11214;DHT22;5664;48.606;13.456;2023-12-20T12:42:08;15.20;98.50
11214;DHT22;5664;48.606;13.456;2023-12-20T12:44:33;15.20;98.50
11214;DHT22;5664;48.606;13.456;2023-12-20T12:46:59;15.40;98.60
11214;DHT22;5664;48.606;13.456;2023-12-20T12:49:24;15.50;98.70
11214;DHT22;5664;48.606;13.456;2023-12-20T12:51:50;15.60;98.50
11214;DHT22;5664;48.606;13.456;2023-12-20T12:54:16;15.70;98.50
11214;DHT22;5664;48.606;13.456;2023-12-20T12:56:42;15.80;98.50
11214;DHT22;5664;48.606;13.456;2023-12-20T12:59:08;15.80;98.50
11214;DHT22;5664;48.606;13.456;2023-12-20T13:01:33;16.00;98.30
11214;DHT22;5664;48.606;13.456;2023-12-20T13:03:59;16.00;98.20
11214;DHT22;5664;48.606;13.456;2023-12-20T13:06:26;16.10;98.00
11214;DHT22;5664;48.606;13.456;2023-12-20T13:08:52;16.20;96.80
11214;DHT22;5664;48.606;13.456;2023-12-20T13:11:17;16.00;93.00
11214;DHT22;5664;48.606;13.456;2023-12-20T13:13:43;16.20;95.20
11214;DHT22;5664;48.606;13.456;2023-12-20T13:16:08;16.20;96.30
11214;DHT22;5664;48.606;13.456;2023-12-20T13:18:34;16.20;96.60
11214;DHT22;5664;48.606;13.456;2023-12-20T13:20:59;16.20;96.20
11214;DHT22;5664;48.606;13.456;2023-12-20T13:23:25;16.40;96.50
11214;DHT22;5664;48.606;13.456;2023-12-20T13:25:50;16.40;96.50
11214;DHT22;5664;48.606;13.456;2023-12-20T13:28:16;16.60;96.50
11214;DHT22;5664;48.606;13.456;2023-12-20T13:30:41;16.50;96.40
11214;DHT22;5664;48.606;13.456;2023-12-20T13:33:07;17.00;96.40
11214;DHT22;5664;48.606;13.456;2023-12-20T13:35:32;16.70;96.20
11214;DHT22;5664;48.606;13.456;2023-12-20T13:37:58;16.80;96.10
11214;DHT22;5664;48.606;13.456;2023-12-20T13:40:24;16.90;95.90
11214;DHT22;5664;48.606;13.456;2023-12-20T13:42:49;17.00;95.80
11214;DHT22;5664;48.606;13.456;2023-12-20T13:45:15;17.10;95.70
11214;DHT22;5664;48.606;13.456;2023-12-20T13:47:40;17.10;95.70
11214;DHT22;5664;48.606;13.456;2023-12-20T13:50:06;17.20;95.60
11214;DHT22;5664;48.606;13.456;2023-12-20T13:52:32;17.20;95.50
11214;DHT22;5664;48.606;13.456;2023-12-20T13:54:57;17.30;95.50
11214;DHT22;5664;48.606;13.456;2023-12-20T13:57:23;17.30;95.40
11214;DHT22;5664;48.606;13.456;2023-12-20T13:59:48;17.40;95.50
11214;DHT22;5664;48.606;13.456;2023-12-20T14:02:14;17.40;95.40
11214;DHT22;5664;48.606;13.456;2023-12-20T14:04:40;17.40;95.30
11214;DHT22;5664;48.606;13.456;2023-12-20T14:07:06;17.40;95.20
11214;DHT22;5664;48.606;13.456;2023-12-20T14:09:33;17.50;95.20
11214;DHT22;5664;48.606;13.456;2023-12-20T14:11:58;17.50;95.10
11214;DHT22;5664;48.606;13.456;2023-12-20T14:14:23;17.50;95.00
11214;DHT22;5664;48.606;13.456;2023-12-20T14:16:49;17.50;95.00
11214;DHT22;5664;48.606;13.456;2023-12-20T14:19:14;17.60;95.00
11214;DHT22;5664;48.606;13.456;2023-12-20T14:21:40;17.60;95.00
11214;DHT22;5664;48.606;13.456;2023-12-20T14:24:06;17.40;90.50
11214;DHT22;5664;48.606;13.456;2023-12-20T14:26:31;17.40;92.20
11214;DHT22;5664;48.606;13.456;2023-12-20T14:28:57;18.20;94.30
11214;DHT22;5664;48.606;13.456;2023-12-20T14:31:22;17.50;94.20
11214;DHT22;5664;48.606;13.456;2023-12-20T14:33:49;17.60;94.40
11214;DHT22;5664;48.606;13.456;2023-12-20T14:36:16;17.60;94.50
11214;DHT22;5664;48.606;13.456;2023-12-20T14:38:43;17.70;94.60
11214;DHT22;5664;48.606;13.456;2023-12-20T14:41:08;17.70;94.70
11214;DHT22;5664;48.606;13.456;2023-12-20T14:43:34;17.80;94.80
11214;DHT22;5664;48.606;13.456;2023-12-20T14:46:00;17.90;94.90
11214;DHT22;5664;48.606;13.456;2023-12-20T14:48:25;17.90;94.90
11214;DHT22;5664;48.606;13.456;2023-12-20T14:50:53;17.90;94.90
11214;DHT22;5664;48.606;13.456;2023-12-20T14:53:18;18.00;94.90
11214;DHT22;5664;48.606;13.456;2023-12-20T14:55:44;18.10;95.00
11214;DHT22;5664;48.606;13.456;2023-12-20T14:58:09;18.10;94.90
11214;DHT22;5664;48.606;13.456;2023-12-20T15:00:35;18.10;94.90
11214;DHT22;5664;48.606;13.456;2023-12-20T15:03:00;18.20;94.90
11214;DHT22;5664;48.606;13.456;2023-12-20T15:05:26;18.20;94.90
11214;DHT22;5664;48.606;13.456;2023-12-20T15:07:52;18.20;94.90
11214;DHT22;5664;48.606;13.456;2023-12-20T15:10:18;18.20;94.90
11214;DHT22;5664;48.606;13.456;2023-12-20T15:12:43;18.30;94.90
11214;DHT22;5664;48.606;13.456;2023-12-20T15:15:10;18.30;94.90
11214;DHT22;5664;48.606;13.456;2023-12-20T15:17:35;18.30;95.00
11214;DHT22;5664;48.606;13.456;2023-12-20T15:20:02;18.30;94.90
11214;DHT22;5664;48.606;13.456;2023-12-20T15:22:27;18.30;94.90